sensor_id;sensor_type;location;lat;lon;timestamp;P1;durP1;ratioP1;P2;durP2;ratioP2
12145;SDS011;6136;47.032;15.398;2023-04-25T00:00:05;2.13;;;1.53;;
12145;SDS011;6136;47.032;15.398;2023-04-25T00:02:37;1.93;;;1.73;;
12145;SDS011;6136;47.032;15.398;2023-04-25T00:05:10;1.80;;;1.70;;
12145;SDS011;6136;47.032;15.398;2023-04-25T00:07:39;2.47;;;1.80;;
12145;SDS011;6136;47.032;15.398;2023-04-25T00:10:08;2.37;;;1.93;;
12145;SDS011;6136;47.032;15.398;2023-04-25T00:12:38;5.37;;;2.00;;
12145;SDS011;6136;47.032;15.398;2023-04-25T00:15:09;3.70;;;1.80;;
12145;SDS011;6136;47.032;15.398;2023-04-25T00:17:39;1.93;;;1.70;;
12145;SDS011;6136;47.032;15.398;2023-04-25T00:20:07;2.00;;;1.60;;
12145;SDS011;6136;47.032;15.398;2023-04-25T00:22:36;2.00;;;1.90;;
12145;SDS011;6136;47.032;15.398;2023-04-25T00:25:05;2.83;;;1.60;;
12145;SDS011;6136;47.032;15.398;2023-04-25T00:27:34;2.03;;;1.93;;
12145;SDS011;6136;47.032;15.398;2023-04-25T00:30:03;2.13;;;1.93;;
12145;SDS011;6136;47.032;15.398;2023-04-25T00:32:34;2.00;;;1.80;;
12145;SDS011;6136;47.032;15.398;2023-04-25T00:35:03;1.90;;;1.70;;
12145;SDS011;6136;47.032;15.398;2023-04-25T00:37:32;1.77;;;1.67;;
12145;SDS011;6136;47.032;15.398;2023-04-25T00:40:00;2.70;;;2.00;;
12145;SDS011;6136;47.032;15.398;2023-04-25T00:42:29;1.90;;;1.73;;
12145;SDS011;6136;47.032;15.398;2023-04-25T00:45:00;2.17;;;1.83;;
12145;SDS011;6136;47.032;15.398;2023-04-25T00:47:31;2.57;;;2.17;;
12145;SDS011;6136;47.032;15.398;2023-04-25T00:50:05;2.40;;;2.17;;
12145;SDS011;6136;47.032;15.398;2023-04-25T00:52:35;3.00;;;2.30;;
12145;SDS011;6136;47.032;15.398;2023-04-25T00:55:06;2.43;;;2.20;;
12145;SDS011;6136;47.032;15.398;2023-04-25T00:57:35;8.53;;;2.43;;
12145;SDS011;6136;47.032;15.398;2023-04-25T01:00:05;3.83;;;2.70;;
12145;SDS011;6136;47.032;15.398;2023-04-25T01:02:37;2.80;;;2.50;;
12145;SDS011;6136;47.032;15.398;2023-04-25T01:05:06;3.60;;;2.30;;
12145;SDS011;6136;47.032;15.398;2023-04-25T01:07:35;2.60;;;2.40;;
12145;SDS011;6136;47.032;15.398;2023-04-25T01:10:04;3.60;;;2.80;;
12145;SDS011;6136;47.032;15.398;2023-04-25T01:12:33;2.20;;;2.00;;
12145;SDS011;6136;47.032;15.398;2023-04-25T01:15:02;3.70;;;2.87;;
12145;SDS011;6136;47.032;15.398;2023-04-25T01:17:31;3.43;;;2.53;;
12145;SDS011;6136;47.032;15.398;2023-04-25T01:20:01;4.00;;;3.40;;
12145;SDS011;6136;47.032;15.398;2023-04-25T01:22:33;5.07;;;3.00;;
12145;SDS011;6136;47.032;15.398;2023-04-25T01:25:02;4.10;;;3.50;;
12145;SDS011;6136;47.032;15.398;2023-04-25T01:27:30;3.97;;;3.17;;
12145;SDS011;6136;47.032;15.398;2023-04-25T01:29:59;3.83;;;3.27;;
12145;SDS011;6136;47.032;15.398;2023-04-25T01:32:30;3.17;;;2.87;;
12145;SDS011;6136;47.032;15.398;2023-04-25T01:35:05;4.93;;;3.30;;
12145;SDS011;6136;47.032;15.398;2023-04-25T01:37:37;5.07;;;3.87;;
12145;SDS011;6136;47.032;15.398;2023-04-25T01:40:07;4.37;;;3.27;;
12145;SDS011;6136;47.032;15.398;2023-04-25T01:42:38;5.33;;;3.43;;
12145;SDS011;6136;47.032;15.398;2023-04-25T01:45:09;4.40;;;3.60;;
12145;SDS011;6136;47.032;15.398;2023-04-25T01:47:38;5.03;;;3.93;;
12145;SDS011;6136;47.032;15.398;2023-04-25T01:50:55;6.40;;;4.83;;
12145;SDS011;6136;47.032;15.398;2023-04-25T01:53:10;5.30;;;4.80;;
12145;SDS011;6136;47.032;15.398;2023-04-25T01:55:43;6.33;;;5.00;;
12145;SDS011;6136;47.032;15.398;2023-04-25T01:58:14;5.37;;;4.87;;
12145;SDS011;6136;47.032;15.398;2023-04-25T02:01:03;7.03;;;4.70;;
12145;SDS011;6136;47.032;15.398;2023-04-25T02:03:39;9.07;;;5.20;;
12145;SDS011;6136;47.032;15.398;2023-04-25T02:06:16;8.47;;;5.43;;
12145;SDS011;6136;47.032;15.398;2023-04-25T02:08:47;7.17;;;4.77;;
12145;SDS011;6136;47.032;15.398;2023-04-25T02:11:16;6.97;;;5.80;;
12145;SDS011;6136;47.032;15.398;2023-04-25T02:13:52;7.40;;;5.20;;
12145;SDS011;6136;47.032;15.398;2023-04-25T02:16:32;10.07;;;6.07;;
12145;SDS011;6136;47.032;15.398;2023-04-25T02:19:02;7.47;;;5.63;;
12145;SDS011;6136;47.032;15.398;2023-04-25T02:21:30;7.00;;;4.83;;
12145;SDS011;6136;47.032;15.398;2023-04-25T02:24:04;9.20;;;5.10;;
12145;SDS011;6136;47.032;15.398;2023-04-25T02:26:34;7.03;;;4.03;;
12145;SDS011;6136;47.032;15.398;2023-04-25T02:37:54;8.70;;;4.87;;
12145;SDS011;6136;47.032;15.398;2023-04-25T02:40:24;5.87;;;4.20;;
12145;SDS011;6136;47.032;15.398;2023-04-25T02:42:53;7.83;;;5.70;;
12145;SDS011;6136;47.032;15.398;2023-04-25T02:45:21;9.83;;;7.17;;
12145;SDS011;6136;47.032;15.398;2023-04-25T02:47:50;7.50;;;6.33;;
12145;SDS011;6136;47.032;15.398;2023-04-25T02:50:19;7.77;;;6.40;;
12145;SDS011;6136;47.032;15.398;2023-04-25T02:52:47;7.20;;;6.43;;
12145;SDS011;6136;47.032;15.398;2023-04-25T02:55:21;5.90;;;4.93;;
12145;SDS011;6136;47.032;15.398;2023-04-25T02:57:55;5.30;;;4.63;;
12145;SDS011;6136;47.032;15.398;2023-04-25T03:00:35;4.63;;;3.77;;
12145;SDS011;6136;47.032;15.398;2023-04-25T03:03:03;5.00;;;4.30;;
12145;SDS011;6136;47.032;15.398;2023-04-25T03:05:32;5.87;;;5.23;;
12145;SDS011;6136;47.032;15.398;2023-04-25T03:08:00;7.60;;;5.20;;
12145;SDS011;6136;47.032;15.398;2023-04-25T03:10:31;6.30;;;4.80;;
12145;SDS011;6136;47.032;15.398;2023-04-25T03:13:05;6.10;;;4.83;;
12145;SDS011;6136;47.032;15.398;2023-04-25T03:15:34;9.43;;;5.73;;
12145;SDS011;6136;47.032;15.398;2023-04-25T03:18:02;6.03;;;5.13;;
12145;SDS011;6136;47.032;15.398;2023-04-25T03:20:31;6.67;;;5.37;;
12145;SDS011;6136;47.032;15.398;2023-04-25T03:23:00;8.90;;;6.23;;
12145;SDS011;6136;47.032;15.398;2023-04-25T03:25:29;6.63;;;5.60;;
12145;SDS011;6136;47.032;15.398;2023-04-25T03:27:57;10.57;;;6.47;;
12145;SDS011;6136;47.032;15.398;2023-04-25T03:30:27;7.40;;;5.90;;
12145;SDS011;6136;47.032;15.398;2023-04-25T03:32:55;6.67;;;5.60;;
12145;SDS011;6136;47.032;15.398;2023-04-25T03:35:24;6.43;;;5.17;;
12145;SDS011;6136;47.032;15.398;2023-04-25T03:37:53;5.90;;;4.73;;
12145;SDS011;6136;47.032;15.398;2023-04-25T03:40:27;4.80;;;4.03;;
12145;SDS011;6136;47.032;15.398;2023-04-25T03:43:18;4.10;;;3.70;;
12145;SDS011;6136;47.032;15.398;2023-04-25T03:45:54;4.20;;;3.80;;
12145;SDS011;6136;47.032;15.398;2023-04-25T03:48:24;4.70;;;4.30;;
12145;SDS011;6136;47.032;15.398;2023-04-25T03:50:53;5.20;;;3.90;;
12145;SDS011;6136;47.032;15.398;2023-04-25T03:53:22;4.97;;;4.10;;
12145;SDS011;6136;47.032;15.398;2023-04-25T03:56:20;4.37;;;3.97;;
12145;SDS011;6136;47.032;15.398;2023-04-25T03:58:56;5.07;;;3.93;;
12145;SDS011;6136;47.032;15.398;2023-04-25T04:01:28;6.77;;;5.63;;
12145;SDS011;6136;47.032;15.398;2023-04-25T04:03:57;7.23;;;5.40;;
12145;SDS011;6136;47.032;15.398;2023-04-25T04:06:26;6.67;;;5.80;;
12145;SDS011;6136;47.032;15.398;2023-04-25T04:09:05;8.30;;;6.43;;
12145;SDS011;6136;47.032;15.398;2023-04-25T04:11:38;8.77;;;6.60;;
12145;SDS011;6136;47.032;15.398;2023-04-25T04:14:07;8.13;;;6.37;;
12145;SDS011;6136;47.032;15.398;2023-04-25T04:16:41;8.27;;;6.13;;
12145;SDS011;6136;47.032;15.398;2023-04-25T04:19:09;10.47;;;7.13;;
12145;SDS011;6136;47.032;15.398;2023-04-25T04:21:42;8.70;;;6.67;;
12145;SDS011;6136;47.032;15.398;2023-04-25T04:24:11;7.20;;;6.30;;
12145;SDS011;6136;47.032;15.398;2023-04-25T04:26:49;6.87;;;5.33;;
12145;SDS011;6136;47.032;15.398;2023-04-25T04:29:29;7.03;;;6.07;;
12145;SDS011;6136;47.032;15.398;2023-04-25T04:32:04;16.33;;;7.07;;
12145;SDS011;6136;47.032;15.398;2023-04-25T04:34:32;9.10;;;6.67;;
12145;SDS011;6136;47.032;15.398;2023-04-25T04:37:02;17.77;;;10.23;;
12145;SDS011;6136;47.032;15.398;2023-04-25T04:39:30;12.73;;;8.80;;
12145;SDS011;6136;47.032;15.398;2023-04-25T04:42:17;15.03;;;6.40;;
12145;SDS011;6136;47.032;15.398;2023-04-25T04:45:06;7.63;;;6.13;;
12145;SDS011;6136;47.032;15.398;2023-04-25T04:47:55;8.10;;;6.93;;
12145;SDS011;6136;47.032;15.398;2023-04-25T04:50:47;9.67;;;7.20;;
12145;SDS011;6136;47.032;15.398;2023-04-25T04:53:42;14.87;;;7.73;;
12145;SDS011;6136;47.032;15.398;2023-04-25T04:56:29;10.67;;;7.43;;
12145;SDS011;6136;47.032;15.398;2023-04-25T04:59:22;11.63;;;8.00;;
12145;SDS011;6136;47.032;15.398;2023-04-25T05:02:09;11.03;;;6.70;;
12145;SDS011;6136;47.032;15.398;2023-04-25T05:04:57;12.53;;;9.03;;
12145;SDS011;6136;47.032;15.398;2023-04-25T05:07:36;13.10;;;8.00;;
12145;SDS011;6136;47.032;15.398;2023-04-25T05:10:21;13.87;;;8.53;;
12145;SDS011;6136;47.032;15.398;2023-04-25T05:13:08;12.03;;;8.57;;
12145;SDS011;6136;47.032;15.398;2023-04-25T05:16:02;12.13;;;7.70;;
12145;SDS011;6136;47.032;15.398;2023-04-25T05:18:57;10.07;;;6.80;;
12145;SDS011;6136;47.032;15.398;2023-04-25T05:21:44;9.47;;;7.63;;
12145;SDS011;6136;47.032;15.398;2023-04-25T05:24:31;11.23;;;7.57;;
12145;SDS011;6136;47.032;15.398;2023-04-25T05:27:19;13.67;;;8.80;;
12145;SDS011;6136;47.032;15.398;2023-04-25T05:30:15;12.30;;;8.93;;
12145;SDS011;6136;47.032;15.398;2023-04-25T05:33:02;11.43;;;8.10;;
12145;SDS011;6136;47.032;15.398;2023-04-25T05:35:31;12.20;;;8.77;;
12145;SDS011;6136;47.032;15.398;2023-04-25T05:38:01;14.67;;;8.77;;
12145;SDS011;6136;47.032;15.398;2023-04-25T05:40:50;13.40;;;8.53;;
12145;SDS011;6136;47.032;15.398;2023-04-25T05:43:37;8.33;;;6.57;;
12145;SDS011;6136;47.032;15.398;2023-04-25T05:46:24;10.10;;;7.80;;
12145;SDS011;6136;47.032;15.398;2023-04-25T05:49:12;10.57;;;7.57;;
12145;SDS011;6136;47.032;15.398;2023-04-25T05:52:02;10.47;;;8.03;;
12145;SDS011;6136;47.032;15.398;2023-04-25T05:54:51;12.87;;;7.33;;
12145;SDS011;6136;47.032;15.398;2023-04-25T05:57:20;10.03;;;7.57;;
12145;SDS011;6136;47.032;15.398;2023-04-25T05:59:49;8.87;;;6.70;;
12145;SDS011;6136;47.032;15.398;2023-04-25T06:02:18;10.13;;;6.97;;
12145;SDS011;6136;47.032;15.398;2023-04-25T06:04:49;9.07;;;6.70;;
12145;SDS011;6136;47.032;15.398;2023-04-25T06:07:20;11.47;;;7.63;;
12145;SDS011;6136;47.032;15.398;2023-04-25T06:09:51;11.97;;;8.97;;
12145;SDS011;6136;47.032;15.398;2023-04-25T06:12:20;11.20;;;8.03;;
12145;SDS011;6136;47.032;15.398;2023-04-25T06:14:50;15.47;;;9.03;;
12145;SDS011;6136;47.032;15.398;2023-04-25T06:17:19;10.57;;;7.77;;
12145;SDS011;6136;47.032;15.398;2023-04-25T06:19:49;11.50;;;8.50;;
12145;SDS011;6136;47.032;15.398;2023-04-25T06:22:18;14.27;;;8.83;;
12145;SDS011;6136;47.032;15.398;2023-04-25T06:24:46;14.77;;;8.47;;
12145;SDS011;6136;47.032;15.398;2023-04-25T06:27:16;13.27;;;8.30;;
12145;SDS011;6136;47.032;15.398;2023-04-25T06:29:45;10.87;;;7.77;;
12145;SDS011;6136;47.032;15.398;2023-04-25T06:32:13;11.67;;;8.00;;
12145;SDS011;6136;47.032;15.398;2023-04-25T06:34:42;14.57;;;7.97;;
12145;SDS011;6136;47.032;15.398;2023-04-25T06:37:10;12.40;;;7.47;;
12145;SDS011;6136;47.032;15.398;2023-04-25T06:39:40;9.90;;;6.90;;
12145;SDS011;6136;47.032;15.398;2023-04-25T06:42:11;9.60;;;6.53;;
12145;SDS011;6136;47.032;15.398;2023-04-25T06:44:47;12.63;;;6.00;;
12145;SDS011;6136;47.032;15.398;2023-04-25T06:47:16;7.43;;;5.27;;
12145;SDS011;6136;47.032;15.398;2023-04-25T06:49:45;9.10;;;6.27;;
12145;SDS011;6136;47.032;15.398;2023-04-25T06:52:14;8.73;;;5.83;;
12145;SDS011;6136;47.032;15.398;2023-04-25T06:54:45;9.27;;;6.77;;
12145;SDS011;6136;47.032;15.398;2023-04-25T06:57:37;9.53;;;5.20;;
12145;SDS011;6136;47.032;15.398;2023-04-25T07:00:32;8.57;;;5.93;;
12145;SDS011;6136;47.032;15.398;2023-04-25T07:03:01;6.77;;;5.73;;
12145;SDS011;6136;47.032;15.398;2023-04-25T07:05:30;8.43;;;5.93;;
12145;SDS011;6136;47.032;15.398;2023-04-25T07:07:59;7.50;;;5.83;;
12145;SDS011;6136;47.032;15.398;2023-04-25T07:10:28;10.30;;;5.80;;
12145;SDS011;6136;47.032;15.398;2023-04-25T07:12:59;6.63;;;5.07;;
12145;SDS011;6136;47.032;15.398;2023-04-25T07:15:27;6.17;;;4.83;;
12145;SDS011;6136;47.032;15.398;2023-04-25T07:17:59;5.37;;;4.70;;
12145;SDS011;6136;47.032;15.398;2023-04-25T07:20:27;7.77;;;4.73;;
12145;SDS011;6136;47.032;15.398;2023-04-25T07:22:57;7.90;;;5.17;;
12145;SDS011;6136;47.032;15.398;2023-04-25T07:25:26;8.13;;;5.23;;
12145;SDS011;6136;47.032;15.398;2023-04-25T07:27:56;8.27;;;5.87;;
12145;SDS011;6136;47.032;15.398;2023-04-25T07:30:25;6.07;;;4.67;;
12145;SDS011;6136;47.032;15.398;2023-04-25T07:32:54;6.60;;;4.07;;
12145;SDS011;6136;47.032;15.398;2023-04-25T07:35:25;4.23;;;3.67;;
12145;SDS011;6136;47.032;15.398;2023-04-25T07:37:53;5.37;;;4.07;;
12145;SDS011;6136;47.032;15.398;2023-04-25T07:40:23;6.97;;;4.43;;
12145;SDS011;6136;47.032;15.398;2023-04-25T07:42:56;11.93;;;4.35;;
12145;SDS011;6136;47.032;15.398;2023-04-25T07:45:34;3.20;;;2.90;;
12145;SDS011;6136;47.032;15.398;2023-04-25T07:48:03;4.93;;;2.95;;
12145;SDS011;6136;47.032;15.398;2023-04-25T07:50:36;8.75;;;2.90;;
12145;SDS011;6136;47.032;15.398;2023-04-25T07:53:05;3.10;;;2.72;;
12145;SDS011;6136;47.032;15.398;2023-04-25T07:55:42;2.58;;;2.20;;
12145;SDS011;6136;47.032;15.398;2023-04-25T07:58:14;3.88;;;2.80;;
12145;SDS011;6136;47.032;15.398;2023-04-25T08:00:51;3.03;;;2.72;;
12145;SDS011;6136;47.032;15.398;2023-04-25T08:03:46;2.92;;;2.63;;
12145;SDS011;6136;47.032;15.398;2023-04-25T08:06:24;4.43;;;2.10;;
12145;SDS011;6136;47.032;15.398;2023-04-25T08:09:21;2.60;;;2.00;;
12145;SDS011;6136;47.032;15.398;2023-04-25T08:11:51;1.88;;;1.70;;
12145;SDS011;6136;47.032;15.398;2023-04-25T08:14:25;2.90;;;1.60;;
12145;SDS011;6136;47.032;15.398;2023-04-25T08:16:55;2.83;;;1.58;;
12145;SDS011;6136;47.032;15.398;2023-04-25T08:19:24;1.55;;;1.45;;
12145;SDS011;6136;47.032;15.398;2023-04-25T08:21:54;3.47;;;1.50;;
12145;SDS011;6136;47.032;15.398;2023-04-25T08:24:30;3.45;;;1.55;;
12145;SDS011;6136;47.032;15.398;2023-04-25T08:26:58;1.33;;;1.23;;
12145;SDS011;6136;47.032;15.398;2023-04-25T08:29:27;1.23;;;1.13;;
12145;SDS011;6136;47.032;15.398;2023-04-25T08:31:56;1.33;;;1.20;;
12145;SDS011;6136;47.032;15.398;2023-04-25T08:34:27;1.58;;;1.23;;
12145;SDS011;6136;47.032;15.398;2023-04-25T08:37:04;1.00;;;1.00;;
12145;SDS011;6136;47.032;15.398;2023-04-25T08:39:52;1.33;;;1.23;;
12145;SDS011;6136;47.032;15.398;2023-04-25T08:42:37;1.65;;;1.20;;
12145;SDS011;6136;47.032;15.398;2023-04-25T08:45:08;1.17;;;1.08;;
12145;SDS011;6136;47.032;15.398;2023-04-25T08:47:38;1.20;;;1.10;;
12145;SDS011;6136;47.032;15.398;2023-04-25T08:50:08;1.20;;;1.10;;
12145;SDS011;6136;47.032;15.398;2023-04-25T08:52:40;1.30;;;1.20;;
12145;SDS011;6136;47.032;15.398;2023-04-25T08:55:12;1.10;;;1.10;;
12145;SDS011;6136;47.032;15.398;2023-04-25T08:57:41;1.10;;;1.10;;
12145;SDS011;6136;47.032;15.398;2023-04-25T09:00:10;1.10;;;1.08;;
12145;SDS011;6136;47.032;15.398;2023-04-25T09:02:43;1.73;;;1.25;;
12145;SDS011;6136;47.032;15.398;2023-04-25T09:05:12;1.08;;;1.00;;
12145;SDS011;6136;47.032;15.398;2023-04-25T09:07:44;1.30;;;1.20;;
12145;SDS011;6136;47.032;15.398;2023-04-25T09:10:16;1.30;;;1.20;;
12145;SDS011;6136;47.032;15.398;2023-04-25T09:12:44;1.20;;;1.10;;
12145;SDS011;6136;47.032;15.398;2023-04-25T09:15:12;1.20;;;1.10;;
12145;SDS011;6136;47.032;15.398;2023-04-25T09:18:09;1.15;;;1.05;;
12145;SDS011;6136;47.032;15.398;2023-04-25T09:20:41;1.30;;;1.20;;
12145;SDS011;6136;47.032;15.398;2023-04-25T09:23:15;1.58;;;1.10;;
12145;SDS011;6136;47.032;15.398;2023-04-25T09:25:46;1.10;;;1.10;;
12145;SDS011;6136;47.032;15.398;2023-04-25T09:28:16;6.35;;;1.10;;
12145;SDS011;6136;47.032;15.398;2023-04-25T09:30:54;1.23;;;1.13;;
12145;SDS011;6136;47.032;15.398;2023-04-25T09:33:31;1.08;;;1.08;;
12145;SDS011;6136;47.032;15.398;2023-04-25T09:36:03;1.25;;;1.10;;
12145;SDS011;6136;47.032;15.398;2023-04-25T09:38:57;1.10;;;0.98;;
12145;SDS011;6136;47.032;15.398;2023-04-25T09:41:33;1.85;;;1.20;;
12145;SDS011;6136;47.032;15.398;2023-04-25T09:44:05;1.00;;;1.00;;
12145;SDS011;6136;47.032;15.398;2023-04-25T09:46:36;1.30;;;1.20;;
12145;SDS011;6136;47.032;15.398;2023-04-25T09:49:09;1.17;;;1.08;;
12145;SDS011;6136;47.032;15.398;2023-04-25T09:51:59;1.00;;;1.00;;
12145;SDS011;6136;47.032;15.398;2023-04-25T09:54:35;1.13;;;1.00;;
12145;SDS011;6136;47.032;15.398;2023-04-25T09:57:14;1.30;;;1.20;;
12145;SDS011;6136;47.032;15.398;2023-04-25T09:59:45;4.47;;;1.20;;
12145;SDS011;6136;47.032;15.398;2023-04-25T10:02:15;0.93;;;0.93;;
12145;SDS011;6136;47.032;15.398;2023-04-25T10:04:48;1.25;;;1.10;;
12145;SDS011;6136;47.032;15.398;2023-04-25T10:07:26;2.03;;;1.00;;
12145;SDS011;6136;47.032;15.398;2023-04-25T10:10:01;2.83;;;1.27;;
12145;SDS011;6136;47.032;15.398;2023-04-25T10:12:30;2.45;;;1.13;;
12145;SDS011;6136;47.032;15.398;2023-04-25T10:15:01;1.98;;;1.23;;
12145;SDS011;6136;47.032;15.398;2023-04-25T10:17:31;1.25;;;1.17;;
12145;SDS011;6136;47.032;15.398;2023-04-25T10:20:00;1.20;;;1.20;;
12145;SDS011;6136;47.032;15.398;2023-04-25T10:22:31;1.23;;;1.10;;
12145;SDS011;6136;47.032;15.398;2023-04-25T10:25:04;1.42;;;1.33;;
12145;SDS011;6136;47.032;15.398;2023-04-25T10:27:35;1.50;;;1.40;;
12145;SDS011;6136;47.032;15.398;2023-04-25T10:30:04;2.17;;;1.20;;
12145;SDS011;6136;47.032;15.398;2023-04-25T10:32:36;1.42;;;1.08;;
12145;SDS011;6136;47.032;15.398;2023-04-25T10:35:11;1.10;;;1.00;;
12145;SDS011;6136;47.032;15.398;2023-04-25T10:37:56;1.17;;;1.10;;
12145;SDS011;6136;47.032;15.398;2023-04-25T10:40:26;1.27;;;1.17;;
12145;SDS011;6136;47.032;15.398;2023-04-25T10:42:55;1.50;;;1.30;;
12145;SDS011;6136;47.032;15.398;2023-04-25T10:45:23;1.15;;;1.10;;
12145;SDS011;6136;47.032;15.398;2023-04-25T10:47:54;1.23;;;1.10;;
12145;SDS011;6136;47.032;15.398;2023-04-25T10:50:23;0.98;;;0.98;;
12145;SDS011;6136;47.032;15.398;2023-04-25T10:53:14;1.88;;;1.13;;
12145;SDS011;6136;47.032;15.398;2023-04-25T10:55:53;1.00;;;1.00;;
12145;SDS011;6136;47.032;15.398;2023-04-25T10:58:24;1.33;;;1.27;;
12145;SDS011;6136;47.032;15.398;2023-04-25T11:00:54;2.22;;;1.30;;
12145;SDS011;6136;47.032;15.398;2023-04-25T11:03:23;1.30;;;1.20;;
12145;SDS011;6136;47.032;15.398;2023-04-25T11:05:52;1.30;;;1.20;;
12145;SDS011;6136;47.032;15.398;2023-04-25T11:08:26;1.55;;;1.45;;
12145;SDS011;6136;47.032;15.398;2023-04-25T11:11:19;1.40;;;1.30;;
12145;SDS011;6136;47.032;15.398;2023-04-25T11:13:48;1.17;;;1.10;;
12145;SDS011;6136;47.032;15.398;2023-04-25T11:16:23;1.10;;;1.10;;
12145;SDS011;6136;47.032;15.398;2023-04-25T11:18:56;1.40;;;1.30;;
12145;SDS011;6136;47.032;15.398;2023-04-25T11:21:25;1.00;;;1.00;;
12145;SDS011;6136;47.032;15.398;2023-04-25T11:23:54;1.77;;;1.10;;
12145;SDS011;6136;47.032;15.398;2023-04-25T11:26:25;1.73;;;1.30;;
12145;SDS011;6136;47.032;15.398;2023-04-25T11:28:56;1.30;;;1.20;;
12145;SDS011;6136;47.032;15.398;2023-04-25T11:31:26;1.10;;;1.10;;
12145;SDS011;6136;47.032;15.398;2023-04-25T11:33:56;1.77;;;1.10;;
12145;SDS011;6136;47.032;15.398;2023-04-25T11:36:25;2.08;;;1.10;;
12145;SDS011;6136;47.032;15.398;2023-04-25T11:38:54;1.20;;;1.10;;
12145;SDS011;6136;47.032;15.398;2023-04-25T11:41:22;1.20;;;1.10;;
12145;SDS011;6136;47.032;15.398;2023-04-25T11:43:53;1.52;;;1.15;;
12145;SDS011;6136;47.032;15.398;2023-04-25T11:46:22;1.77;;;1.20;;
12145;SDS011;6136;47.032;15.398;2023-04-25T11:48:50;3.13;;;1.15;;
12145;SDS011;6136;47.032;15.398;2023-04-25T11:51:19;2.58;;;1.60;;
12145;SDS011;6136;47.032;15.398;2023-04-25T11:53:47;2.78;;;1.73;;
12145;SDS011;6136;47.032;15.398;2023-04-25T11:56:17;3.95;;;1.58;;
12145;SDS011;6136;47.032;15.398;2023-04-25T11:58:56;1.42;;;1.33;;
12145;SDS011;6136;47.032;15.398;2023-04-25T12:01:26;2.03;;;1.20;;
12145;SDS011;6136;47.032;15.398;2023-04-25T12:04:09;1.45;;;1.35;;
12145;SDS011;6136;47.032;15.398;2023-04-25T12:06:40;1.60;;;1.27;;
12145;SDS011;6136;47.032;15.398;2023-04-25T12:09:11;1.83;;;1.30;;
12145;SDS011;6136;47.032;15.398;2023-04-25T12:11:41;1.60;;;1.37;;
12145;SDS011;6136;47.032;15.398;2023-04-25T12:14:11;1.30;;;1.20;;
12145;SDS011;6136;47.032;15.398;2023-04-25T12:16:41;3.27;;;1.10;;
12145;SDS011;6136;47.032;15.398;2023-04-25T12:19:13;1.30;;;1.20;;
12145;SDS011;6136;47.032;15.398;2023-04-25T12:21:42;4.67;;;2.13;;
12145;SDS011;6136;47.032;15.398;2023-04-25T12:24:25;10.13;;;5.87;;
12145;SDS011;6136;47.032;15.398;2023-04-25T12:26:58;5.85;;;3.60;;
12145;SDS011;6136;47.032;15.398;2023-04-25T12:29:30;5.47;;;2.97;;
12145;SDS011;6136;47.032;15.398;2023-04-25T12:32:31;2.72;;;1.60;;
12145;SDS011;6136;47.032;15.398;2023-04-25T12:34:59;5.30;;;3.40;;
12145;SDS011;6136;47.032;15.398;2023-04-25T12:37:28;3.72;;;1.90;;
12145;SDS011;6136;47.032;15.398;2023-04-25T12:39:57;4.70;;;4.20;;
12145;SDS011;6136;47.032;15.398;2023-04-25T12:42:25;3.50;;;2.63;;
12145;SDS011;6136;47.032;15.398;2023-04-25T12:44:54;1.90;;;1.70;;
12145;SDS011;6136;47.032;15.398;2023-04-25T12:47:22;1.42;;;0.93;;
12145;SDS011;6136;47.032;15.398;2023-04-25T12:49:52;1.50;;;1.20;;
12145;SDS011;6136;47.032;15.398;2023-04-25T12:52:20;1.20;;;1.10;;
12145;SDS011;6136;47.032;15.398;2023-04-25T12:54:48;1.13;;;1.10;;
12145;SDS011;6136;47.032;15.398;2023-04-25T12:57:16;1.70;;;1.17;;
12145;SDS011;6136;47.032;15.398;2023-04-25T12:59:44;0.98;;;0.98;;
12145;SDS011;6136;47.032;15.398;2023-04-25T13:02:13;1.05;;;0.95;;
12145;SDS011;6136;47.032;15.398;2023-04-25T13:04:41;1.05;;;0.95;;
12145;SDS011;6136;47.032;15.398;2023-04-25T13:07:11;1.10;;;1.00;;
12145;SDS011;6136;47.032;15.398;2023-04-25T13:09:39;1.67;;;1.58;;
12145;SDS011;6136;47.032;15.398;2023-04-25T13:12:07;1.30;;;1.20;;
12145;SDS011;6136;47.032;15.398;2023-04-25T13:14:36;1.05;;;0.95;;
12145;SDS011;6136;47.032;15.398;2023-04-25T13:17:04;1.23;;;1.13;;
12145;SDS011;6136;47.032;15.398;2023-04-25T13:19:32;2.75;;;1.60;;
12145;SDS011;6136;47.032;15.398;2023-04-25T13:22:01;1.30;;;1.20;;
12145;SDS011;6136;47.032;15.398;2023-04-25T13:24:32;1.77;;;1.10;;
12145;SDS011;6136;47.032;15.398;2023-04-25T13:27:00;1.77;;;1.30;;
12145;SDS011;6136;47.032;15.398;2023-04-25T13:29:29;2.67;;;1.13;;
12145;SDS011;6136;47.032;15.398;2023-04-25T13:31:58;1.00;;;1.00;;
12145;SDS011;6136;47.032;15.398;2023-04-25T13:34:26;1.40;;;1.30;;
12145;SDS011;6136;47.032;15.398;2023-04-25T13:36:55;1.27;;;1.17;;
12145;SDS011;6136;47.032;15.398;2023-04-25T13:39:23;1.23;;;1.15;;
12145;SDS011;6136;47.032;15.398;2023-04-25T13:41:53;1.00;;;0.90;;
12145;SDS011;6136;47.032;15.398;2023-04-25T13:44:22;1.30;;;1.00;;
12145;SDS011;6136;47.032;15.398;2023-04-25T13:46:50;1.05;;;0.98;;
12145;SDS011;6136;47.032;15.398;2023-04-25T13:49:19;1.23;;;1.20;;
12145;SDS011;6136;47.032;15.398;2023-04-25T13:51:49;1.10;;;1.10;;
12145;SDS011;6136;47.032;15.398;2023-04-25T13:54:17;1.20;;;1.10;;
12145;SDS011;6136;47.032;15.398;2023-04-25T13:56:45;1.52;;;1.17;;
12145;SDS011;6136;47.032;15.398;2023-04-25T13:59:16;1.10;;;1.10;;
12145;SDS011;6136;47.032;15.398;2023-04-25T14:01:44;1.60;;;1.50;;
12145;SDS011;6136;47.032;15.398;2023-04-25T14:04:13;1.60;;;1.30;;
12145;SDS011;6136;47.032;15.398;2023-04-25T14:06:41;0.90;;;0.90;;
12145;SDS011;6136;47.032;15.398;2023-04-25T14:09:09;1.13;;;1.13;;
12145;SDS011;6136;47.032;15.398;2023-04-25T14:11:39;1.45;;;1.30;;
12145;SDS011;6136;47.032;15.398;2023-04-25T14:14:07;0.93;;;0.90;;
12145;SDS011;6136;47.032;15.398;2023-04-25T14:16:37;1.20;;;1.10;;
12145;SDS011;6136;47.032;15.398;2023-04-25T14:19:05;1.42;;;1.13;;
12145;SDS011;6136;47.032;15.398;2023-04-25T14:21:33;0.90;;;0.90;;
12145;SDS011;6136;47.032;15.398;2023-04-25T14:24:02;0.95;;;0.95;;
12145;SDS011;6136;47.032;15.398;2023-04-25T14:26:31;0.90;;;0.90;;
12145;SDS011;6136;47.032;15.398;2023-04-25T14:29:02;1.40;;;1.20;;
12145;SDS011;6136;47.032;15.398;2023-04-25T14:31:30;0.90;;;0.90;;
12145;SDS011;6136;47.032;15.398;2023-04-25T14:34:01;2.25;;;1.13;;
12145;SDS011;6136;47.032;15.398;2023-04-25T14:36:30;2.40;;;1.00;;
12145;SDS011;6136;47.032;15.398;2023-04-25T14:38:58;1.75;;;1.65;;
12145;SDS011;6136;47.032;15.398;2023-04-25T14:41:27;3.00;;;1.67;;
12145;SDS011;6136;47.032;15.398;2023-04-25T14:43:55;1.30;;;1.17;;
12145;SDS011;6136;47.032;15.398;2023-04-25T14:46:24;1.00;;;1.00;;
12145;SDS011;6136;47.032;15.398;2023-04-25T14:48:52;1.73;;;1.23;;
12145;SDS011;6136;47.032;15.398;2023-04-25T14:51:23;2.30;;;1.17;;
12145;SDS011;6136;47.032;15.398;2023-04-25T14:53:53;0.82;;;0.82;;
12145;SDS011;6136;47.032;15.398;2023-04-25T14:56:21;2.43;;;1.47;;
12145;SDS011;6136;47.032;15.398;2023-04-25T14:58:49;2.22;;;1.20;;
12145;SDS011;6136;47.032;15.398;2023-04-25T15:01:18;2.50;;;1.20;;
12145;SDS011;6136;47.032;15.398;2023-04-25T15:03:48;1.45;;;1.10;;
12145;SDS011;6136;47.032;15.398;2023-04-25T15:06:18;0.90;;;0.90;;
12145;SDS011;6136;47.032;15.398;2023-04-25T15:08:48;1.27;;;1.17;;
12145;SDS011;6136;47.032;15.398;2023-04-25T15:11:17;1.10;;;1.10;;
12145;SDS011;6136;47.032;15.398;2023-04-25T15:13:46;1.83;;;1.10;;
12145;SDS011;6136;47.032;15.398;2023-04-25T15:16:15;2.50;;;1.30;;
12145;SDS011;6136;47.032;15.398;2023-04-25T15:18:43;2.97;;;1.23;;
12145;SDS011;6136;47.032;15.398;2023-04-25T15:21:12;1.07;;;0.97;;
12145;SDS011;6136;47.032;15.398;2023-04-25T15:23:40;1.07;;;1.07;;
12145;SDS011;6136;47.032;15.398;2023-04-25T15:26:09;0.90;;;0.90;;